Airfield :







YOU CAN JOIN US ON...

 
LOGIN :

Register | Disclaimer

   EN    FR    IT 

 









Legend :    VFR   Marginal VFR   IFR   Intensive IFR   Very Intensive IFR
Visi :
Ceiling :
>= 8 km
>= 3000ft
5 to 8 km
1000 to 3000 ft
1500m to 5 km
500 to 1000 ft
800 to 1500m
200 to 500 ft
< 800m
< 200 ft
Symbols :   Thunderstorms  Fog  Heavy snow  Heavy precipitations  Wind > 20 kt







- Airport Elevation : 76 ft
- IATA code : PWM


KPWM - Portland International Jetport

CURRENT METAR :
  • 260551Z AUTO 19006KT 4SM RA BR BKN045 OVC070 11/09 A2995 RMK AO2 RAB0454 TSE16 SLP140 P0035 60035 T01110094 10139 20111 56017

EXPIRED METARs :
  • 260531Z AUTO 16005KT 4SM RA BR BKN042 BKN055 OVC070 11/09 A2996 RMK AO2 RAB0454 TSE16 P0019 T01110094
  • 260514Z AUTO 00000KT 2 1/2SM +RA SCT041 OVC060 12/09 A2997 RMK AO2 LTG DSNT SW AND W RAB0454 P0008 T01170089
  • 260451Z AUTO 20007KT 10SM OVC065 13/07 A2996 RMK AO2 SLP145 T01330072 402220072
  • 260351Z 18008G17KT 10SM FEW040 BKN080 OVC130 13/07 A2997 RMK AO2 SLP147 LAST T01280072

TAF KPWM
Valid from the 26 at 06:00 until the 27 at 06:00 UTC


260535Z 2606/2706 18008KT 5SM -SHRA VCTS OVC035CB
FM260700 19009KT 5SM -SHRA BR OVC025
FM261200 23006KT P6SM BKN035
FM261600 30010KT P6SM SCT050 SCT250
FM270100 VRB04KT P6SM FEW250
KZBW FIR / North America



MET'MAP, your aeronautical weather chart ! - Copyright ORBIFLY December 2007 - Disclaimer

ORBIFLY MET'MAP TEAM :

Programming & Development : Alexandra Zaïnal
Concept & Development : Baudouin d'Aumeries
Co-Development & Prog : Marc-Olivier Méhu
Technical & hardware support : Manuel Goepfert

Contact : metmap@orbifly.com




SOURCES & CREDITS :

   NOAA